Weather at Trebinje (Zupci) Aerodrome [CLOSED]

Public forecast

Using degrees Celsius for public forecast. Weather courtesy of forecast.io.

Closest aviation weather report (METAR) to Trebinje (Zupci) Aerodrome

Closest report is Dubrovnik Ruđer Bošković Airport, 7.5 nm (13.9 km) WSW.

2024/05/19 08:30 (retrieved 22 minutes ago)

LDDU 190830Z VRB02KT 9999 FEW026 22/17 Q1013 NOSIG

Closest aviation forecast (TAF) to Trebinje (Zupci) Aerodrome

Closest forecast is Dubrovnik Ruđer Bošković Airport, 7.5 nm (13.9 km) WSW.

2024/05/19 06:28 (retrieved 2 hours ago)

TAF LDDU 190525Z 1906/2006 VRB02KT 9999 FEW040 TX24/1912Z TN17/2003Z TEMPO 1909/1913 18010KT PROB40 TEMPO 1913/1918 29008KT PROB30 TEMPO 1914/1919 02012KT -TSRA SCT030 FEW050CB